MST,Max TemperatureF,Mean TemperatureF,Min TemperatureF,Max Dew PointF,MeanDew PointF,Min DewpointF,Max Humidity, Mean Humidity, Min Humidity, Max Sea Level PressureIn, Mean Sea Level PressureIn, Min Sea Level PressureIn, Max VisibilityMiles, Mean VisibilityMiles, Min VisibilityMiles, Max Wind SpeedMPH, Mean Wind SpeedMPH, Max Gust SpeedMPH,PrecipitationIn, CloudCover, Events, WindDirDegrees
2011-11-1,62,43,27,35,29,25,96,75,31,30.06,29.97,29.75,10,7,1,28,7,38,0.01,5,Rain-Snow,278
2011-11-2,44,34,25,27,23,19,89,67,41,30.54,30.34,29.98,10,10,10,17,7,25,0.06,2,,273
2011-11-3,46,32,18,24,19,15,89,67,30,30.53,30.33,30.12,10,10,10,5,2,,0.00,0,,109
2011-11-4,57,39,23,31,24,19,88,60,32,30.09,29.82,29.52,10,10,10,12,2,18,0.00,1,,171
2011-11-5,55,41,30,39,33,22,97,83,34,29.87,29.57,29.37,10,8,1,25,9,37,0.27,7,Rain-Snow,271
2011-11-6,39,34,28,28,24,20,85,70,46,30.06,30.00,29.88,10,10,10,6,3,,0.00,8,,172
2011-11-7,44,36,28,28,25,23,88,74,45,30.05,30.01,29.90,10,10,10,12,1,,0.00,5,,204
2011-11-8,44,34,23,25,21,17,92,69,37,30.45,30.23,30.05,10,10,10,10,2,,0.00,3,,230
2011-11-9,45,31,17,19,16,12,88,61,27,30.66,30.58,30.47,10,10,10,7,1,,0.00,0,,118
2011-11-10,46,32,17,17,14,9,81,57,21,30.67,30.50,30.37,10,10,10,7,2,,0.00,0,,174
2011-11-11,42,28,15,20,15,11,84,56,29,30.35,30.13,29.97,10,10,10,6,2,,0.00,0,,159
2011-11-12,51,40,28,25,21,19,78,51,28,29.94,29.81,29.65,10,10,10,21,5,31,0.00,7,,242
2011-11-13,44,38,30,37,32,23,93,80,43,29.90,29.75,29.66,10,10,8,21,9,26,0.14,7,Rain,266
2011-11-14,48,37,26,32,26,23,92,72,39,29.94,29.88,29.78,10,10,10,21,3,28,0.00,0,,205
2011-11-15,50,40,30,29,26,20,82,64,38,30.06,29.95,29.85,10,10,10,17,5,18,0.00,4,,204
2011-11-16,43,31,19,23,14,6,85,56,22,30.41,30.29,30.06,10,10,10,7,2,,0.00,0,,180
2011-11-17,51,34,18,17,14,10,81,56,19,30.41,30.19,29.96,10,10,10,13,2,,0.00,0,,155
2011-11-18,57,38,19,22,19,15,81,50,24,29.92,29.70,29.38,10,10,10,24,5,34,0.00,0,,205
2011-11-19,46,38,30,31,29,23,100,86,39,29.96,29.82,29.43,10,4,0,28,7,38,0.10,8,Fog-Snow,288
2011-11-20,48,39,30,36,31,29,96,82,58,30.08,30.01,29.95,10,10,8,8,3,,0.00,6,,142
2011-11-21,48,40,33,36,33,30,93,80,58,30.20,30.07,29.98,10,10,5,13,4,17,0.12,7,Rain,133
2011-11-22,50,40,28,36,32,25,100,87,43,30.43,30.30,30.20,10,7,0,12,2,,0.05,5,Fog-Rain,220
2011-11-23,51,38,25,30,26,21,92,69,39,30.45,30.31,30.20,10,10,10,5,1,,0.00,0,,121
2011-11-24,52,36,21,27,23,18,88,64,32,30.22,30.08,29.97,10,10,10,9,1,,0.00,0,,184
2011-11-25,52,40,28,27,23,10,88,55,33,30.33,30.01,29.86,10,10,10,18,5,26,0.00,4,,296
2011-11-26,37,28,18,11,6,1,65,41,21,30.78,30.63,30.33,10,10,10,22,7,32,0.00,0,,57
2011-11-27,46,30,15,16,9,1,81,53,16,30.81,30.68,30.56,10,10,10,7,2,,0.00,0,,140
2011-11-28,48,33,18,22,16,12,81,59,27,30.61,30.46,30.33,10,10,10,5,1,,0.00,0,,125
2011-11-29,55,38,21,22,19,17,85,58,23,30.49,30.35,30.25,10,10,10,7,2,,0.00,1,,110
2011-11-30,54,36,19,21,19,16,85,60,24,30.22,30.01,29.82,10,10,10,9,3,,0.00,0,,134